Time;durP1;ratioP1;P1;durP2;ratioP2;P2;SDS_P1;SDS_P2;PMS_P1;PMS_P2;Temp;Humidity;BMP_temperature;BMP_pressure;BME280_temperature;BME280_humidity;BME280_pressure;Samples;Min_cycle;Max_cycle;Signal;HPM_P1;HPM_P2
2021/11/22 00:00:40;;;;;;;25.77;7.70;;;;;;;4.70;100.00;100593.78;4985271;28;20237;-75
2021/11/22 00:03:09;;;;;;;22.37;8.83;;;;;;;4.69;100.00;100594.63;4983567;28;20214;-74
2021/11/22 00:05:36;;;;;;;19.07;7.93;;;;;;;4.70;100.00;100598.94;4990036;28;20297;-74
2021/11/22 00:08:02;;;;;;;17.90;8.63;;;;;;;4.65;100.00;100598.09;4982355;28;20201;-75
2021/11/22 00:10:30;;;;;;;17.03;7.43;;;;;;;4.70;100.00;100603.25;4984423;28;20229;-73
2021/11/22 00:12:57;;;;;;;18.53;7.97;;;;;;;4.67;100.00;100605.84;4981032;28;20210;-75
2021/11/22 00:15:23;;;;;;;21.00;8.00;;;;;;;4.64;100.00;100616.16;4984139;28;20205;-75
2021/11/22 00:17:50;;;;;;;15.17;7.20;;;;;;;4.67;100.00;100608.44;4985732;28;20815;-75
2021/11/22 00:20:20;;;;;;;19.80;8.37;;;;;;;4.66;100.00;100619.59;4977127;28;20248;-74
2021/11/22 00:22:47;;;;;;;17.23;7.83;;;;;;;4.66;100.00;100625.66;4980938;28;21192;-75
2021/11/22 00:25:14;;;;;;;17.70;7.37;;;;;;;4.63;100.00;100630.81;4985478;28;20320;-74
2021/11/22 00:27:43;;;;;;;14.60;7.17;;;;;;;4.54;100.00;100625.69;4980549;28;20201;-75
2021/11/22 00:30:31;;;;;;;14.60;6.20;;;;;;;4.50;100.00;100634.25;4986766;28;20221;-75
2021/11/22 00:33:03;;;;;;;14.57;6.63;;;;;;;4.45;100.00;100639.44;4983580;28;20213;-74
2021/11/22 00:35:49;;;;;;;12.47;5.77;;;;;;;4.43;100.00;100630.81;4980467;28;20213;-75
2021/11/22 00:38:16;;;;;;;13.83;6.00;;;;;;;4.38;100.00;100644.59;4982564;28;20209;-74
2021/11/22 00:40:44;;;;;;;15.80;6.67;;;;;;;4.31;100.00;100644.63;4984621;28;20320;-74
2021/11/22 00:43:12;;;;;;;12.10;6.37;;;;;;;4.25;100.00;100648.91;4986188;28;20646;-74
2021/11/22 00:45:39;;;;;;;14.40;6.40;;;;;;;4.18;100.00;100648.03;4982176;28;20225;-74
2021/11/22 00:48:06;;;;;;;11.90;5.83;;;;;;;4.16;100.00;100650.63;4983103;28;20692;-75
2021/11/22 00:50:34;;;;;;;13.17;6.13;;;;;;;4.16;100.00;100652.34;4980047;28;20231;-74
2021/11/22 00:53:01;;;;;;;14.17;6.00;;;;;;;4.17;100.00;100659.25;4985771;28;20212;-75
2021/11/22 00:55:28;;;;;;;13.27;6.07;;;;;;;4.19;100.00;100660.09;4983886;28;20599;-72
2021/11/22 00:57:55;;;;;;;13.83;6.30;;;;;;;4.20;100.00;100669.56;4984625;28;20540;-73
2021/11/22 01:00:23;;;;;;;14.47;6.53;;;;;;;4.22;100.00;100667.84;4983514;28;20238;-75
2021/11/22 01:02:50;;;;;;;15.17;6.43;;;;;;;4.22;100.00;100677.28;4976280;28;20297;-73
2021/11/22 01:05:16;;;;;;;12.13;6.63;;;;;;;4.17;100.00;100685.91;4979702;28;20227;-73
2021/11/22 01:07:43;;;;;;;14.37;6.47;;;;;;;4.17;100.00;100687.63;4985663;28;20432;-75
2021/11/22 01:10:11;;;;;;;13.57;5.90;;;;;;;4.16;100.00;100686.75;4975670;28;20229;-75
2021/11/22 01:12:38;;;;;;;10.87;5.73;;;;;;;4.16;100.00;100691.06;4982746;28;20516;-74
2021/11/22 01:15:08;;;;;;;12.17;6.13;;;;;;;4.18;100.00;100699.66;4984685;28;20674;-75
2021/11/22 01:17:37;;;;;;;19.00;6.03;;;;;;;4.09;100.00;100697.94;4983257;28;20200;-74
2021/11/22 01:20:05;;;;;;;19.60;6.60;;;;;;;4.09;100.00;100691.91;4985662;28;20681;-73
2021/11/22 01:22:32;;;;;;;11.60;5.70;;;;;;;4.05;100.00;100692.78;4978839;28;20570;-74
2021/11/22 01:24:58;;;;;;;12.37;6.13;;;;;;;4.04;100.00;100699.63;4982374;28;20221;-74
2021/11/22 01:27:25;;;;;;;12.47;6.07;;;;;;;3.97;100.00;100696.22;4988664;28;20566;-75
2021/11/22 01:29:51;;;;;;;12.23;5.70;;;;;;;4.02;100.00;100697.94;4983291;28;20861;-73
2021/11/22 01:32:18;;;;;;;12.33;5.67;;;;;;;3.98;100.00;100697.91;4986633;28;20217;-73
2021/11/22 01:34:47;;;;;;;14.27;5.87;;;;;;;3.95;100.00;100702.22;4983266;28;20237;-75
2021/11/22 01:37:13;;;;;;;10.63;5.40;;;;;;;3.97;100.00;100697.91;4978395;28;20217;-74
2021/11/22 01:39:39;;;;;;;9.67;5.30;;;;;;;3.96;100.00;100703.94;4983209;28;20202;-74
2021/11/22 01:42:07;;;;;;;12.63;5.70;;;;;;;3.91;100.00;100700.50;4983496;28;20229;-74
2021/11/22 01:44:33;;;;;;;15.17;5.70;;;;;;;3.88;100.00;100703.06;4988968;28;20216;-74
2021/11/22 01:47:00;;;;;;;9.17;5.20;;;;;;;3.82;100.00;100714.22;4977598;28;20236;-75
2021/11/22 01:49:27;;;;;;;10.63;5.63;;;;;;;3.87;100.00;100715.09;4983019;28;20206;-74
2021/11/22 01:51:55;;;;;;;15.57;6.03;;;;;;;3.87;100.00;100720.25;4983465;28;20241;-74
2021/11/22 01:54:22;;;;;;;10.20;5.13;;;;;;;3.87;100.00;100729.69;4987787;28;20205;-74
2021/11/22 01:56:49;;;;;;;10.30;5.20;;;;;;;3.88;100.00;100728.84;4983671;28;20292;-75
2021/11/22 01:59:16;;;;;;;12.03;5.73;;;;;;;3.89;100.00;100730.59;4988211;28;20736;-74
2021/11/22 02:01:43;;;;;;;11.13;5.37;;;;;;;3.86;100.00;100728.84;4985318;28;20326;-74
2021/11/22 02:04:10;;;;;;;14.53;5.37;;;;;;;3.86;100.00;100733.16;4985726;28;20205;-74
2021/11/22 02:06:37;;;;;;;12.70;5.37;;;;;;;3.89;100.00;100740.91;4983109;28;20229;-75
2021/11/22 02:09:06;;;;;;;14.07;5.70;;;;;;;3.88;100.00;100742.59;4983802;28;20295;-75
2021/11/22 02:11:34;;;;;;;12.27;5.90;;;;;;;3.93;100.00;100737.47;4982537;28;20998;-74
2021/11/22 02:14:01;;;;;;;12.57;6.27;;;;;;;3.91;100.00;100742.63;4984100;28;20215;-74
2021/11/22 02:16:27;;;;;;;10.47;5.70;;;;;;;3.92;100.00;100744.34;4983443;28;20202;-73
2021/11/22 02:18:55;;;;;;;12.93;6.50;;;;;;;3.83;100.00;100740.88;4981225;28;20324;-76
2021/11/22 02:21:23;;;;;;;17.70;6.30;;;;;;;3.83;100.00;100741.72;4981400;28;20264;-73
2021/11/22 02:23:49;;;;;;;12.77;6.17;;;;;;;3.86;100.00;100739.16;4977288;28;20598;-75
2021/11/22 02:26:16;;;;;;;14.33;6.63;;;;;;;3.91;100.00;100736.59;4981842;28;20213;-74
2021/11/22 02:28:42;;;;;;;13.50;6.60;;;;;;;3.92;100.00;100738.31;4986194;28;20203;-75
2021/11/22 02:31:09;;;;;;;17.27;6.70;;;;;;;3.88;100.00;100747.75;4982761;28;20332;-75
2021/11/22 02:33:35;;;;;;;12.60;5.97;;;;;;;3.92;100.00;100735.72;4981551;28;20291;-75
2021/11/22 02:36:03;;;;;;;12.53;6.20;;;;;;;3.95;100.00;100740.91;4985861;28;20212;-76
2021/11/22 02:38:33;;;;;;;17.13;7.33;;;;;;;3.95;100.00;100744.34;4981885;28;20209;-76
2021/11/22 02:41:01;;;;;;;12.33;6.53;;;;;;;3.95;100.00;100743.47;4981599;28;20312;-76
2021/11/22 02:43:29;;;;;;;14.53;7.20;;;;;;;3.93;100.00;100740.91;4981778;28;20202;-73
2021/11/22 02:45:56;;;;;;;15.80;7.03;;;;;;;3.93;100.00;100742.63;4984798;28;20236;-76
2021/11/22 02:48:22;;;;;;;13.23;6.53;;;;;;;3.94;100.00;100744.31;4982258;28;20524;-74
2021/11/22 02:50:49;;;;;;;12.70;6.53;;;;;;;3.93;100.00;100755.53;4986250;28;20217;-76
2021/11/22 02:53:16;;;;;;;15.70;7.37;;;;;;;3.91;100.00;100757.25;4986885;28;20205;-76
2021/11/22 02:55:44;;;;;;;15.13;6.97;;;;;;;3.93;100.00;100758.94;4985148;28;20224;-74
2021/11/22 02:58:11;;;;;;;17.50;6.23;;;;;;;3.92;100.00;100754.66;4983986;28;20212;-73
2021/11/22 03:00:39;;;;;;;12.73;6.23;;;;;;;3.93;100.00;100763.25;4981944;28;20229;-74
2021/11/22 03:03:05;;;;;;;13.97;6.60;;;;;;;3.96;100.00;100774.44;4982294;28;20239;-74
2021/11/22 03:05:32;;;;;;;18.70;6.90;;;;;;;3.88;100.00;100786.44;4988195;28;20582;-72
2021/11/22 03:07:59;;;;;;;12.37;5.97;;;;;;;3.84;100.00;100776.13;4981500;28;20573;-75
2021/11/22 03:10:28;;;;;;;14.80;6.67;;;;;;;3.86;100.00;100785.59;4984613;28;20240;-74
2021/11/22 03:12:57;;;;;;;14.97;7.43;;;;;;;3.81;100.00;100783.84;4986812;28;21511;-75
2021/11/22 03:15:23;;;;;;;13.47;6.23;;;;;;;3.82;100.00;100788.13;4987314;28;20206;-72
2021/11/22 03:17:50;;;;;;;16.00;7.27;;;;;;;3.81;100.00;100789.00;4983490;28;20489;-75
2021/11/22 03:20:19;;;;;;;14.67;6.77;;;;;;;3.78;100.00;100795.00;4983111;28;20250;-74
2021/11/22 03:22:47;;;;;;;18.00;7.10;;;;;;;3.78;100.00;100790.72;4980554;28;20304;-72
2021/11/22 03:25:16;;;;;;;14.23;5.90;;;;;;;3.78;100.00;100793.31;4990878;28;20567;-74
2021/11/22 03:27:43;;;;;;;15.67;6.47;;;;;;;3.82;100.00;100801.91;4987110;28;20750;-75
2021/11/22 03:30:13;;;;;;;16.83;7.33;;;;;;;3.85;100.00;100816.53;4985014;28;20695;-75
2021/11/22 03:32:40;;;;;;;13.47;6.23;;;;;;;3.86;100.00;100813.97;4989429;28;20295;-74
2021/11/22 03:35:08;;;;;;;14.53;6.30;;;;;;;3.82;100.00;100813.94;4981970;28;20746;-75
2021/11/22 03:37:34;;;;;;;16.57;7.27;;;;;;;3.81;100.00;100817.38;4993242;28;20197;-72
2021/11/22 03:40:02;;;;;;;15.90;6.73;;;;;;;3.82;100.00;100819.97;4988022;28;20206;-73
2021/11/22 03:42:36;;;;;;;15.47;6.53;;;;;;;3.84;100.00;100828.56;4987998;28;20205;-73
2021/11/22 03:45:05;;;;;;;14.90;6.37;;;;;;;3.84;100.00;100836.31;4982577;28;20200;-74
2021/11/22 03:47:32;;;;;;;14.37;6.37;;;;;;;3.86;100.00;100842.34;4990704;28;20473;-75
2021/11/22 03:49:59;;;;;;;16.37;6.50;;;;;;;3.82;100.00;100843.19;4984883;28;20508;-74
2021/11/22 03:52:25;;;;;;;15.53;6.83;;;;;;;3.83;100.00;100839.75;4993302;28;20201;-75
2021/11/22 03:54:52;;;;;;;15.50;7.13;;;;;;;3.85;100.00;100845.75;4983432;28;20206;-73
2021/11/22 03:57:18;;;;;;;17.87;6.67;;;;;;;3.85;100.00;100845.75;4995871;28;20208;-72
2021/11/22 03:59:44;;;;;;;12.87;6.70;;;;;;;3.85;100.00;100839.75;4987592;28;20645;-74
2021/11/22 04:02:12;;;;;;;13.07;6.90;;;;;;;3.85;100.00;100845.75;4983353;28;20225;-74
2021/11/22 04:04:40;;;;;;;17.77;7.20;;;;;;;3.86;100.00;100846.66;4983364;28;20822;-73
2021/11/22 04:07:06;;;;;;;20.33;8.13;;;;;;;3.87;100.00;100838.91;4979285;28;20217;-75
2021/11/22 04:09:34;;;;;;;17.43;7.17;;;;;;;3.90;100.00;100850.94;4979627;28;20580;-73
2021/11/22 04:12:01;;;;;;;16.93;7.33;;;;;;;3.89;100.00;100841.50;4983818;28;20789;-74
2021/11/22 04:14:27;;;;;;;19.60;8.20;;;;;;;3.88;100.00;100853.53;4982503;28;20240;-73
2021/11/22 04:16:53;;;;;;;17.00;8.03;;;;;;;3.90;100.00;100854.38;4974304;28;20518;-73
2021/11/22 04:19:20;;;;;;;19.80;8.23;;;;;;;3.90;100.00;100851.81;4980362;28;20302;-74
2021/11/22 04:21:48;;;;;;;17.87;8.33;;;;;;;3.91;100.00;100857.84;4973715;28;20858;-74
2021/11/22 04:24:15;;;;;;;15.67;8.00;;;;;;;3.94;100.00;100853.56;4985555;28;20736;-73
2021/11/22 04:26:42;;;;;;;21.23;7.90;;;;;;;3.95;100.00;100869.91;4982249;28;20307;-74
2021/11/22 04:29:08;;;;;;;23.17;9.20;;;;;;;3.94;100.00;100870.75;4977139;28;20305;-73
2021/11/22 04:31:35;;;;;;;20.83;8.63;;;;;;;3.95;100.00;100878.50;4980420;28;20224;-74
2021/11/22 04:34:02;;;;;;;21.73;10.23;;;;;;;3.93;100.00;100885.38;4978111;28;20209;-74
2021/11/22 04:36:28;;;;;;;18.60;9.57;;;;;;;3.94;100.00;100879.38;4979746;28;20216;-72
2021/11/22 04:38:56;;;;;;;19.97;9.77;;;;;;;3.93;100.00;100885.38;4979400;28;20205;-73
2021/11/22 04:41:24;;;;;;;25.93;10.63;;;;;;;3.92;100.00;100901.72;4979181;28;20267;-73
2021/11/22 04:43:52;;;;;;;21.83;9.33;;;;;;;3.91;100.00;100901.72;4982803;28;20252;-74
2021/11/22 04:46:18;;;;;;;19.03;9.50;;;;;;;3.90;100.00;100900.81;4982339;28;20507;-74
2021/11/22 04:48:45;;;;;;;24.53;9.90;;;;;;;3.91;100.00;100902.56;4982042;28;20211;-74
2021/11/22 04:51:11;;;;;;;23.60;9.00;;;;;;;3.91;100.00;100912.88;4977902;28;20319;-75
2021/11/22 04:53:38;;;;;;;19.33;9.67;;;;;;;3.91;100.00;100909.44;4978804;28;20209;-74
2021/11/22 04:56:06;;;;;;;21.80;9.60;;;;;;;3.92;100.00;100919.78;4977938;28;20210;-74
2021/11/22 04:58:33;;;;;;;20.97;9.77;;;;;;;3.91;100.00;100925.78;4978545;28;20213;-73
2021/11/22 05:00:59;;;;;;;21.00;9.73;;;;;;;3.88;100.00;100938.66;4977149;28;20245;-73
2021/11/22 05:03:25;;;;;;;20.33;9.40;;;;;;;3.93;100.00;100930.94;4972103;28;20306;-73
2021/11/22 05:05:52;;;;;;;23.77;8.90;;;;;;;3.89;100.00;100937.81;4980019;28;20212;-74
2021/11/22 05:08:18;;;;;;;19.83;9.33;;;;;;;3.90;100.00;100936.94;4976824;28;20213;-74
2021/11/22 05:10:45;;;;;;;18.73;8.73;;;;;;;3.90;100.00;100944.69;4977674;28;20239;-74
2021/11/22 05:13:16;;;;;;;19.33;8.77;;;;;;;3.90;100.00;100944.69;4975241;28;20618;-74
2021/11/22 05:15:43;;;;;;;17.73;9.00;;;;;;;3.86;100.00;100945.53;4977923;28;20666;-73
2021/11/22 05:18:11;;;;;;;19.90;9.43;;;;;;;3.86;100.00;100945.53;4977057;28;20210;-73
2021/11/22 05:20:39;;;;;;;19.80;10.57;;;;;;;3.85;100.00;100953.25;4980890;28;20463;-75
2021/11/22 05:23:06;;;;;;;15.20;8.97;;;;;;;3.83;100.00;100952.38;4976073;28;20209;-73
2021/11/22 05:25:32;;;;;;;18.37;8.33;;;;;;;3.84;100.00;100960.13;4979742;28;20213;-74
2021/11/22 05:27:59;;;;;;;17.30;8.27;;;;;;;3.85;100.00;100966.16;4981369;28;20587;-74
2021/11/22 05:30:27;;;;;;;18.73;8.23;;;;;;;3.84;100.00;100967.88;4975336;28;20316;-74
2021/11/22 05:32:54;;;;;;;15.10;8.03;;;;;;;3.81;100.00;100962.69;4980242;28;20225;-74
2021/11/22 05:35:20;;;;;;;15.13;7.97;;;;;;;3.80;100.00;100973.88;4981966;28;20204;-74
2021/11/22 05:37:47;;;;;;;16.60;7.57;;;;;;;3.84;100.00;100972.19;4977244;28;20328;-73
2021/11/22 05:40:13;;;;;;;129.53;57.00;;;;;;;3.83;100.00;100979.03;4979236;28;20229;-73
2021/11/22 05:42:40;;;;;;;40.03;25.20;;;;;;;3.84;100.00;100983.34;4977436;28;20208;-73
2021/11/22 05:45:07;;;;;;;18.63;8.90;;;;;;;3.81;100.00;100985.03;4968922;28;20292;-74
2021/11/22 05:47:35;;;;;;;23.30;14.57;;;;;;;3.83;100.00;100985.91;4981554;28;20213;-72
2021/11/22 05:50:05;;;;;;;18.03;9.43;;;;;;;3.85;100.00;100992.78;4985771;28;20533;-75
2021/11/22 05:52:32;;;;;;;45.53;29.07;;;;;;;3.86;100.00;100998.84;4977964;28;20234;-74
2021/11/22 05:54:59;;;;;;;24.93;15.43;;;;;;;3.85;100.00;101005.69;4970363;28;20217;-75
2021/11/22 05:57:26;;;;;;;22.47;15.33;;;;;;;3.86;100.00;101010.00;4976017;28;20212;-73
2021/11/22 05:59:53;;;;;;;20.47;8.47;;;;;;;3.85;100.00;101012.59;4976105;28;20201;-73
2021/11/22 06:02:19;;;;;;;19.03;9.40;;;;;;;3.82;100.00;101015.13;4975309;28;20325;-73
2021/11/22 06:04:47;;;;;;;23.77;16.47;;;;;;;3.83;100.00;101019.44;4979687;28;20210;-73
2021/11/22 06:07:13;;;;;;;19.33;10.63;;;;;;;3.81;100.00;101021.16;4975152;28;20225;-72
2021/11/22 06:09:40;;;;;;;19.53;10.63;;;;;;;3.83;100.00;101027.19;4981634;28;20762;-73
2021/11/22 06:12:07;;;;;;;20.40;9.87;;;;;;;3.76;100.00;101026.25;4974075;28;20714;-73
2021/11/22 06:14:34;;;;;;;17.80;9.07;;;;;;;3.74;100.00;101033.13;4973897;28;20224;-73
2021/11/22 06:17:00;;;;;;;15.20;8.87;;;;;;;3.73;100.00;101033.97;4978515;28;20268;-74
2021/11/22 06:19:27;;;;;;;14.50;8.60;;;;;;;3.69;100.00;101040.81;4978340;28;20582;-73
2021/11/22 06:21:55;;;;;;;17.27;9.13;;;;;;;3.73;100.00;101042.59;4975788;28;20747;-73
2021/11/22 06:24:23;;;;;;;14.80;8.87;;;;;;;3.75;100.00;101046.03;4976612;28;20214;-73
2021/11/22 06:26:50;;;;;;;36.83;22.00;;;;;;;3.76;100.00;101050.38;4976355;28;20221;-75
2021/11/22 06:29:18;;;;;;;51.10;28.80;;;;;;;3.79;100.00;101062.41;4975305;28;20210;-73
2021/11/22 06:31:45;;;;;;;29.57;18.23;;;;;;;3.81;100.00;101057.28;4977430;28;20233;-73
2021/11/22 06:34:12;;;;;;;18.77;11.27;;;;;;;3.80;100.00;101059.00;4976124;28;20206;-74
2021/11/22 06:36:38;;;;;;;18.40;10.47;;;;;;;3.83;100.00;101069.31;4978089;28;20208;-73
2021/11/22 06:39:06;;;;;;;20.30;9.40;;;;;;;3.84;100.00;101077.94;4976201;28;20288;-75
2021/11/22 06:41:32;;;;;;;15.07;8.57;;;;;;;3.83;100.00;101081.34;4983338;28;20695;-73
2021/11/22 06:43:59;;;;;;;16.67;8.77;;;;;;;3.84;100.00;101078.78;4975413;28;20540;-74
2021/11/22 06:46:25;;;;;;;15.23;7.97;;;;;;;3.85;100.00;101077.94;4976908;28;20198;-73
2021/11/22 06:48:51;;;;;;;14.77;8.43;;;;;;;3.85;100.00;101085.66;4977149;28;20310;-73
2021/11/22 06:51:18;;;;;;;15.20;9.10;;;;;;;3.88;100.00;101098.59;4977272;28;20213;-73
2021/11/22 06:53:44;;;;;;;18.47;8.70;;;;;;;3.90;100.00;101096.03;4979409;28;20236;-72
2021/11/22 06:56:12;;;;;;;17.80;9.47;;;;;;;3.91;100.00;101102.94;4975739;28;20414;-73
2021/11/22 06:58:38;;;;;;;23.67;13.37;;;;;;;3.91;100.00;101098.63;4986346;28;20231;-74
2021/11/22 07:01:05;;;;;;;37.67;18.83;;;;;;;3.93;100.00;101108.97;4980285;28;20238;-74
2021/11/22 07:03:31;;;;;;;19.47;8.73;;;;;;;3.93;100.00;101111.56;4981701;28;20216;-73
2021/11/22 07:05:59;;;;;;;18.30;9.63;;;;;;;3.95;100.00;101117.59;4979028;28;20217;-73
2021/11/22 07:08:26;;;;;;;22.20;13.57;;;;;;;3.97;100.00;101119.34;4983772;28;20221;-73
2021/11/22 07:10:52;;;;;;;20.27;9.57;;;;;;;3.97;100.00;101118.47;4982991;28;20233;-73
2021/11/22 07:13:20;;;;;;;18.33;11.73;;;;;;;4.01;100.00;101122.81;4991515;28;20582;-73
2021/11/22 07:15:47;;;;;;;19.03;8.73;;;;;;;4.02;100.00;101123.66;4991616;28;20220;-74
2021/11/22 07:18:14;;;;;;;16.93;8.83;;;;;;;4.00;100.00;101128.81;4981838;28;20194;-72
2021/11/22 07:20:45;;;;;;;19.37;9.80;;;;;;;4.02;100.00;101128.84;4987708;28;20313;-73
2021/11/22 07:23:11;;;;;;;15.50;7.87;;;;;;;4.02;100.00;101134.84;4979162;28;20757;-73
2021/11/22 07:25:38;;;;;;;14.87;8.57;;;;;;;4.02;100.00;101134.00;4980459;28;20205;-73
2021/11/22 07:28:04;;;;;;;15.63;9.30;;;;;;;4.05;100.00;101149.50;4986443;28;20222;-73
2021/11/22 07:30:32;;;;;;;27.80;13.80;;;;;;;4.04;100.00;101152.94;4983980;28;20232;-73
2021/11/22 07:32:59;;;;;;;16.27;9.53;;;;;;;4.06;100.00;101152.06;4980910;28;20206;-73
2021/11/22 07:35:25;;;;;;;16.00;9.33;;;;;;;4.06;100.00;101158.97;4980291;28;20218;-73
2021/11/22 07:37:52;;;;;;;16.23;9.30;;;;;;;4.02;100.00;101155.50;4980585;28;20587;-75
2021/11/22 07:40:21;;;;;;;14.70;8.57;;;;;;;4.03;100.00;101156.34;4982526;28;20271;-75
2021/11/22 07:42:48;;;;;;;11.93;7.40;;;;;;;4.05;100.00;101159.84;4977914;28;20205;-75
2021/11/22 07:45:14;;;;;;;13.43;7.97;;;;;;;4.06;100.00;101166.72;4981457;28;20203;-75
2021/11/22 07:47:42;;;;;;;15.90;7.80;;;;;;;4.05;100.00;101177.91;4984406;28;20225;-73
2021/11/22 07:50:08;;;;;;;13.23;7.43;;;;;;;4.09;100.00;101174.47;4988125;28;20221;-75
2021/11/22 07:52:35;;;;;;;16.47;8.77;;;;;;;4.10;100.00;101179.66;4984401;28;20206;-75
2021/11/22 07:55:01;;;;;;;14.83;8.37;;;;;;;4.13;100.00;101189.13;4978806;28;20575;-75
2021/11/22 07:57:28;;;;;;;16.93;8.57;;;;;;;4.12;100.00;101193.44;4979002;28;20201;-75
2021/11/22 07:59:55;;;;;;;11.43;7.30;;;;;;;4.12;100.00;101193.44;4978953;28;20196;-75
2021/11/22 08:02:21;;;;;;;13.37;7.03;;;;;;;4.18;100.00;101198.66;4977986;28;20219;-75
2021/11/22 08:04:49;;;;;;;16.37;9.93;;;;;;;4.22;100.00;101198.69;4983269;28;20591;-75
2021/11/22 08:07:17;;;;;;;12.23;7.40;;;;;;;4.26;100.00;101208.22;4981439;28;20588;-75
2021/11/22 08:09:54;;;;;;;12.73;8.80;;;;;;;4.25;100.00;101203.88;4979309;28;20297;-75
2021/11/22 08:12:27;;;;;;;13.83;7.40;;;;;;;4.29;100.00;101215.94;4973845;28;20552;-75
2021/11/22 08:14:56;;;;;;;10.90;6.63;;;;;;;4.31;100.00;101206.50;4983756;28;20220;-75
2021/11/22 08:17:23;;;;;;;12.03;7.60;;;;;;;4.35;100.00;101228.94;4975933;28;20586;-73
2021/11/22 08:19:51;;;;;;;10.47;7.30;;;;;;;4.30;100.00;101225.44;4983110;28;20499;-73
2021/11/22 08:22:20;;;;;;;10.33;6.40;;;;;;;4.30;100.00;101230.59;4979875;28;20206;-73
2021/11/22 08:24:50;;;;;;;11.77;5.57;;;;;;;4.32;100.00;101241.81;4980614;28;20213;-73
2021/11/22 08:27:17;;;;;;;7.93;5.23;;;;;;;4.28;100.00;101242.63;4979652;28;20225;-73
2021/11/22 08:29:44;;;;;;;7.23;5.60;;;;;;;4.26;100.00;101252.94;4987836;28;20569;-73
2021/11/22 08:32:10;;;;;;;8.83;5.33;;;;;;;4.28;100.00;101255.53;4980598;28;20234;-73
2021/11/22 08:34:36;;;;;;;7.00;4.90;;;;;;;4.28;100.00;101258.97;4989150;28;20217;-73
2021/11/22 08:37:04;;;;;;;6.90;4.33;;;;;;;4.31;100.00;101261.59;4983269;28;20213;-73
2021/11/22 08:39:30;;;;;;;5.20;4.00;;;;;;;4.34;100.00;101266.81;4981069;28;20200;-73
2021/11/22 08:41:57;;;;;;;7.10;4.43;;;;;;;4.34;100.00;101271.09;4985537;28;20234;-73
2021/11/22 08:44:24;;;;;;;6.63;4.47;;;;;;;4.41;100.00;101275.44;4984222;28;20212;-72
2021/11/22 08:46:50;;;;;;;5.23;3.80;;;;;;;4.42;100.00;101284.09;4983048;28;20209;-73
2021/11/22 08:49:17;;;;;;;5.30;4.23;;;;;;;4.38;100.00;101293.53;4990025;28;20240;-73
2021/11/22 08:51:45;;;;;;;4.53;3.83;;;;;;;4.36;100.00;101292.59;4977509;28;20220;-73
2021/11/22 08:54:13;;;;;;;5.30;3.97;;;;;;;4.38;100.00;101298.69;4979371;28;20220;-73
2021/11/22 08:56:39;;;;;;;6.03;3.53;;;;;;;4.43;100.00;101303.88;4979132;28;20237;-73
2021/11/22 08:59:06;;;;;;;6.50;3.93;;;;;;;4.43;100.00;101311.63;4981145;28;20205;-73
2021/11/22 09:01:32;;;;;;;5.47;3.77;;;;;;;4.48;100.00;101307.38;4978069;28;20247;-73
2021/11/22 09:03:59;;;;;;;5.30;3.83;;;;;;;4.46;100.00;101312.50;4978441;28;20212;-72
2021/11/22 09:06:26;;;;;;;4.53;3.57;;;;;;;4.50;100.00;101321.16;4982250;28;20204;-73
2021/11/22 09:08:53;;;;;;;5.60;4.33;;;;;;;4.51;100.00;101321.19;4981508;28;20224;-73
2021/11/22 09:11:21;;;;;;;5.03;4.00;;;;;;;4.47;100.00;101329.75;4980984;28;20545;-73
2021/11/22 09:13:47;;;;;;;5.03;3.90;;;;;;;4.52;100.00;101329.78;4979556;28;20785;-73
2021/11/22 09:16:14;;;;;;;5.67;4.10;;;;;;;4.60;100.00;101340.22;4984316;28;20634;-72
2021/11/22 09:18:40;;;;;;;8.30;5.87;;;;;;;4.51;100.00;101336.69;4978912;28;20197;-73
2021/11/22 09:21:07;;;;;;;5.47;4.23;;;;;;;4.48;100.00;101339.22;4979453;28;20236;-73
2021/11/22 09:23:33;;;;;;;8.50;4.93;;;;;;;4.47;100.00;101341.81;4977319;28;20574;-74
2021/11/22 09:26:01;;;;;;;5.30;4.47;;;;;;;4.51;100.00;101340.97;4987482;28;20882;-73
2021/11/22 09:28:29;;;;;;;7.10;3.87;;;;;;;4.52;100.00;101355.59;4981512;28;20221;-73
2021/11/22 09:30:55;;;;;;;4.53;4.10;;;;;;;4.60;100.00;101355.72;4979557;28;20225;-72
2021/11/22 09:33:21;;;;;;;5.93;3.90;;;;;;;4.58;100.00;101355.69;4980517;28;20198;-73
2021/11/22 09:35:48;;;;;;;6.27;3.40;;;;;;;4.58;100.00;101360.00;4974705;28;20573;-73
2021/11/22 09:38:14;;;;;;;7.13;3.90;;;;;;;4.61;100.00;101363.47;4978814;28;20201;-73
2021/11/22 09:40:40;;;;;;;5.13;3.40;;;;;;;4.62;100.00;101357.44;4979761;28;20223;-73
2021/11/22 09:43:07;;;;;;;5.50;3.20;;;;;;;4.63;100.00;101361.78;4978263;28;20206;-73
2021/11/22 09:45:35;;;;;;;3.97;3.10;;;;;;;4.65;100.00;101361.78;4970318;28;20197;-72
2021/11/22 09:48:03;;;;;;;4.13;3.43;;;;;;;4.70;100.00;101371.31;4978595;28;20225;-73
2021/11/22 09:50:32;;;;;;;3.97;3.13;;;;;;;4.80;100.00;101367.13;4979544;28;20997;-74
2021/11/22 09:52:59;;;;;;;4.77;2.90;;;;;;;4.83;100.00;101371.44;4978999;28;20541;-73
2021/11/22 09:55:29;;;;;;;3.80;2.90;;;;;;;4.82;100.00;101372.25;4978881;28;20211;-73
2021/11/22 09:57:56;;;;;;;2.97;2.60;;;;;;;4.75;100.00;101373.94;4978509;28;20213;-73
2021/11/22 10:00:23;;;;;;;3.93;2.60;;;;;;;4.77;100.00;101369.66;4983055;28;20336;-74
2021/11/22 10:02:56;;;;;;;3.77;2.77;;;;;;;4.74;100.00;101370.47;4987769;28;20216;-73
2021/11/22 10:05:26;;;;;;;2.63;2.10;;;;;;;4.72;100.00;101377.34;4984121;28;20219;-73
2021/11/22 10:08:01;;;;;;;2.90;2.27;;;;;;;4.58;100.00;101389.25;4983903;28;20690;-74
2021/11/22 10:10:32;;;;;;;4.80;3.63;;;;;;;4.49;100.00;101387.44;4980978;28;20220;-73
2021/11/22 10:12:58;;;;;;;5.27;4.10;;;;;;;4.47;100.00;101389.16;4982299;28;20215;-72
2021/11/22 10:15:25;;;;;;;5.90;3.77;;;;;;;4.35;100.00;101389.00;4979433;28;20396;-74
2021/11/22 10:17:53;;;;;;;7.73;4.80;;;;;;;4.28;100.00;101390.66;4979065;28;20215;-74
2021/11/22 10:20:22;;;;;;;4.63;3.40;;;;;;;4.15;100.00;101391.34;4981879;28;20236;-74
2021/11/22 10:22:52;;;;;;;8.60;5.70;;;;;;;4.11;100.00;101385.25;4980393;28;20368;-73
2021/11/22 10:25:22;;;;;;;10.00;7.60;;;;;;;4.08;100.00;101384.38;4980428;28;20216;-76
2021/11/22 10:27:50;;;;;;;9.67;8.30;;;;;;;4.09;100.00;101391.28;4980283;28;20222;-75
2021/11/22 10:30:24;;;;;;;16.90;9.90;;;;;;;4.24;100.00;101391.47;4978742;28;20260;-74
2021/11/22 10:32:54;;;;;;;20.50;14.47;;;;;;;4.44;100.00;101396.00;4980662;28;20644;-72
2021/11/22 10:35:22;;;;;;;10.80;7.23;;;;;;;4.61;100.00;101404.81;4986678;28;20566;-73
2021/11/22 10:38:00;;;;;;;9.03;6.83;;;;;;;4.68;100.00;101400.56;4985861;28;20205;-74
2021/11/22 10:40:29;;;;;;;6.97;5.00;;;;;;;4.67;100.00;101402.28;4987760;28;20471;-73
2021/11/22 10:42:56;;;;;;;7.97;5.27;;;;;;;4.66;100.00;101403.13;4985262;28;20205;-74
2021/11/22 10:45:31;;;;;;;6.77;4.77;;;;;;;4.63;100.00;101402.25;4981661;28;20340;-73
2021/11/22 10:48:16;;;;;;;8.00;4.80;;;;;;;4.57;100.00;101412.50;4984368;28;20209;-73
2021/11/22 10:50:54;;;;;;;11.00;8.67;;;;;;;4.48;100.00;101419.28;4990986;28;20290;-74
2021/11/22 10:53:39;;;;;;;8.60;6.30;;;;;;;4.48;100.00;101416.69;4981771;28;20205;-74
2021/11/22 10:56:09;;;;;;;4.60;3.60;;;;;;;4.44;100.00;101421.81;4985620;28;20214;-72
2021/11/22 10:58:39;;;;;;;4.30;3.40;;;;;;;4.47;100.00;101425.31;4987498;28;20201;-74
2021/11/22 11:01:30;;;;;;;8.73;5.07;;;;;;;4.56;100.00;101416.81;4986129;28;20407;-75
2021/11/22 11:04:04;;;;;;;5.67;3.67;;;;;;;4.78;100.00;101424.78;4976477;28;20708;-76
2021/11/22 11:06:54;;;;;;;5.50;3.97;;;;;;;4.99;100.00;101424.97;4984958;28;20226;-75
2021/11/22 11:09:27;;;;;;;4.20;3.53;;;;;;;5.18;100.00;101428.59;4987427;28;20220;-71
2021/11/22 11:12:00;;;;;;;3.60;2.63;;;;;;;5.19;100.00;101429.47;4984400;28;20909;-72
2021/11/22 11:14:29;;;;;;;2.90;2.43;;;;;;;5.12;98.90;101436.31;4990618;28;20205;-74
2021/11/22 11:17:09;;;;;;;3.53;2.80;;;;;;;5.07;97.78;101438.84;4987551;28;20248;-74
2021/11/22 11:19:37;;;;;;;4.80;3.10;;;;;;;5.04;98.43;101435.38;4985300;28;20208;-74
2021/11/22 11:22:04;;;;;;;3.10;2.70;;;;;;;5.05;100.00;101426.78;4985741;28;20224;-76